Time;durP1;ratioP1;P1;durP2;ratioP2;P2;SDS_P1;SDS_P2;PMS_P1;PMS_P2;Temp;Humidity;BMP_temperature;BMP_pressure;BME280_temperature;BME280_humidity;BME280_pressure;Samples;Min_cycle;Max_cycle;Signal;HPM_P1;HPM_P2
2023/09/15 00:00:56;;;;;;;;;10.33;8.67;;;;;;;;5094719;27;45685;-69
2023/09/15 00:03:22;;;;;;;;;8.33;7.33;;;;;;;;5086161;27;45306;-70
2023/09/15 00:05:47;;;;;;;;;6.00;5.67;;;;;;;;5095731;27;45460;-67
2023/09/15 00:08:13;;;;;;;;;8.67;6.00;;;;;;;;5090730;27;45822;-70
2023/09/15 00:10:39;;;;;;;;;3.67;3.67;;;;;;;;5086121;27;45661;-67
2023/09/15 00:13:04;;;;;;;;;6.33;6.33;;;;;;;;5095943;27;45240;-68
2023/09/15 00:15:29;;;;;;;;;7.00;7.00;;;;;;;;5095051;27;45809;-68
2023/09/15 00:17:55;;;;;;;;;7.67;6.67;;;;;;;;5096117;27;45712;-67
2023/09/15 00:20:21;;;;;;;;;12.67;9.67;;;;;;;;5095755;27;45663;-69
2023/09/15 00:22:49;;;;;;;;;9.00;7.67;;;;;;;;5094226;27;45489;-68
2023/09/15 00:25:14;;;;;;;;;8.67;7.33;;;;;;;;5107385;27;45751;-68
2023/09/15 00:27:40;;;;;;;;;8.33;8.00;;;;;;;;5095319;27;46493;-68
2023/09/15 00:30:05;;;;;;;;;6.00;6.00;;;;;;;;5095431;27;45373;-67
2023/09/15 00:32:30;;;;;;;;;8.33;7.00;;;;;;;;5096046;27;45906;-68
2023/09/15 00:34:56;;;;;;;;;9.67;8.33;;;;;;;;5095423;27;45616;-67
2023/09/15 00:37:21;;;;;;;;;7.00;7.00;;;;;;;;5095615;27;46015;-68
2023/09/15 00:39:46;;;;;;;;;8.67;8.67;;;;;;;;5095885;27;45379;-68
2023/09/15 00:42:12;;;;;;;;;6.00;6.00;;;;;;;;5105479;27;45586;-68
2023/09/15 00:44:37;;;;;;;;;9.67;7.67;;;;;;;;5097544;27;45459;-67
2023/09/15 00:47:05;;;;;;;;;10.33;10.33;;;;;;;;5094941;27;45472;-67
2023/09/15 00:49:30;;;;;;;;;2.33;2.33;;;;;;;;5100169;27;45512;-68
2023/09/15 00:51:56;;;;;;;;;7.33;6.33;;;;;;;;5076163;27;45396;-67
2023/09/15 00:54:21;;;;;;;;;8.67;7.00;;;;;;;;5100666;27;45689;-68
2023/09/15 00:56:47;;;;;;;;;8.33;7.00;;;;;;;;5094052;27;45451;-67
2023/09/15 00:59:14;;;;;;;;;10.33;10.33;;;;;;;;5094616;27;45491;-67
2023/09/15 01:01:40;;;;;;;;;8.33;8.33;;;;;;;;5098863;27;45429;-68
2023/09/15 01:04:06;;;;;;;;;7.33;6.67;;;;;;;;5113006;27;45622;-69
2023/09/15 01:06:32;;;;;;;;;9.00;9.00;;;;;;;;5096647;27;45423;-68
2023/09/15 01:08:57;;;;;;;;;8.00;6.00;;;;;;;;5097236;27;45329;-68
2023/09/15 01:11:22;;;;;;;;;9.00;8.00;;;;;;;;5093917;27;45287;-68
2023/09/15 01:13:49;;;;;;;;;8.00;8.00;;;;;;;;5098514;27;45439;-67
2023/09/15 01:16:29;;;;;;;;;10.67;9.00;;;;;;;;5098260;27;45393;-68
2023/09/15 01:19:15;;;;;;;;;10.67;8.00;;;;;;;;5105663;27;45381;-68
2023/09/15 01:21:43;;;;;;;;;9.00;9.00;;;;;;;;5097785;27;45391;-68
2023/09/15 01:24:28;;;;;;;;;9.33;7.00;;;;;;;;5111342;27;45459;-70
2023/09/15 01:27:02;;;;;;;;;5.33;4.33;;;;;;;;5097147;27;46369;-68
2023/09/15 01:29:40;;;;;;;;;9.67;9.33;;;;;;;;5098151;27;45415;-68
2023/09/15 01:32:07;;;;;;;;;11.33;9.67;;;;;;;;5098038;27;45432;-67
2023/09/15 01:34:34;;;;;;;;;5.67;4.67;;;;;;;;5097206;27;45389;-68
2023/09/15 01:36:59;;;;;;;;;9.67;9.33;;;;;;;;5096036;27;46379;-67
2023/09/15 01:39:30;;;;;;;;;5.33;5.33;;;;;;;;5100704;27;45789;-68
2023/09/15 01:41:55;;;;;;;;;5.67;5.33;;;;;;;;5097873;27;45823;-69
2023/09/15 01:44:20;;;;;;;;;12.00;12.00;;;;;;;;5082269;27;46131;-67
2023/09/15 01:46:45;;;;;;;;;14.33;13.00;;;;;;;;5083078;27;48472;-67
2023/09/15 01:49:11;;;;;;;;;7.67;7.33;;;;;;;;5104801;27;45586;-68
2023/09/15 01:51:37;;;;;;;;;9.00;6.33;;;;;;;;5108472;27;45410;-68
2023/09/15 01:54:02;;;;;;;;;9.00;9.00;;;;;;;;5079586;27;45711;-68
2023/09/15 01:56:29;;;;;;;;;8.00;8.00;;;;;;;;5085116;27;47166;-68
2023/09/15 01:58:54;;;;;;;;;10.00;10.00;;;;;;;;5103402;27;45454;-68
2023/09/15 02:01:20;;;;;;;;;9.00;9.00;;;;;;;;5096788;27;45509;-66
2023/09/15 02:03:46;;;;;;;;;11.33;9.33;;;;;;;;5105516;27;45474;-69
2023/09/15 02:06:16;;;;;;;;;10.00;10.00;;;;;;;;5096688;27;46132;-68
2023/09/15 02:08:41;;;;;;;;;11.67;9.33;;;;;;;;5097148;27;45878;-69
2023/09/15 02:11:07;;;;;;;;;13.00;11.67;;;;;;;;5097895;27;45747;-76
2023/09/15 02:13:35;;;;;;;;;12.67;11.00;;;;;;;;5098601;27;45506;-76
2023/09/15 02:16:01;;;;;;;;;13.33;9.33;;;;;;;;5104452;27;46044;-76
2023/09/15 02:18:26;;;;;;;;;10.67;9.67;;;;;;;;5103032;27;45683;-75
2023/09/15 02:20:55;;;;;;;;;12.00;9.33;;;;;;;;5097163;27;45436;-76
2023/09/15 02:23:23;;;;;;;;;10.33;9.33;;;;;;;;5096653;27;45416;-75
2023/09/15 02:25:49;;;;;;;;;10.00;8.67;;;;;;;;5097942;27;45387;-69
2023/09/15 02:28:15;;;;;;;;;10.00;8.33;;;;;;;;5078421;27;45436;-69
2023/09/15 02:30:40;;;;;;;;;8.33;8.33;;;;;;;;5096478;27;45677;-69
2023/09/15 02:33:05;;;;;;;;;11.00;9.00;;;;;;;;5096207;27;45361;-68
2023/09/15 02:35:30;;;;;;;;;9.67;8.33;;;;;;;;5096381;27;45523;-69
2023/09/15 02:37:56;;;;;;;;;8.33;8.33;;;;;;;;5078695;27;45535;-69
2023/09/15 02:40:23;;;;;;;;;15.33;13.67;;;;;;;;5106584;27;45323;-67
2023/09/15 02:42:48;;;;;;;;;12.67;12.33;;;;;;;;5098009;27;45483;-69
2023/09/15 02:45:14;;;;;;;;;9.33;8.67;;;;;;;;5088889;27;48273;-76
2023/09/15 02:47:39;;;;;;;;;9.00;9.00;;;;;;;;5091641;27;45520;-75
2023/09/15 02:50:05;;;;;;;;;14.67;10.33;;;;;;;;5102104;27;45481;-75
2023/09/15 02:52:31;;;;;;;;;7.00;6.00;;;;;;;;5091849;27;47140;-75
2023/09/15 02:54:56;;;;;;;;;12.33;8.33;;;;;;;;5098953;27;45728;-76
2023/09/15 02:57:21;;;;;;;;;13.00;10.67;;;;;;;;5096260;27;45435;-75
2023/09/15 02:59:46;;;;;;;;;12.67;9.00;;;;;;;;5096450;27;45532;-76
2023/09/15 03:02:12;;;;;;;;;11.00;10.00;;;;;;;;5098440;27;45806;-76
2023/09/15 03:04:38;;;;;;;;;11.00;9.33;;;;;;;;5099834;27;45727;-74
2023/09/15 03:07:04;;;;;;;;;10.33;8.67;;;;;;;;5096267;27;45488;-75
2023/09/15 03:09:31;;;;;;;;;12.67;9.67;;;;;;;;5096796;27;45674;-76
2023/09/15 03:11:56;;;;;;;;;16.00;12.67;;;;;;;;5095527;27;46048;-69
2023/09/15 03:14:22;;;;;;;;;13.00;12.00;;;;;;;;5076887;27;47042;-69
2023/09/15 03:16:47;;;;;;;;;9.33;9.33;;;;;;;;5104777;27;45815;-68
2023/09/15 03:19:13;;;;;;;;;11.33;9.00;;;;;;;;5105861;27;45872;-69
2023/09/15 03:21:38;;;;;;;;;12.00;11.00;;;;;;;;5085724;27;46390;-69
2023/09/15 03:24:04;;;;;;;;;11.00;10.00;;;;;;;;5097964;27;46295;-69
2023/09/15 03:26:29;;;;;;;;;10.00;8.33;;;;;;;;5088833;27;45741;-69
2023/09/15 03:28:55;;;;;;;;;10.67;9.00;;;;;;;;5105939;27;46397;-67
2023/09/15 03:31:20;;;;;;;;;10.00;9.67;;;;;;;;5097784;27;45636;-68
2023/09/15 03:33:45;;;;;;;;;12.33;7.67;;;;;;;;5100021;27;46174;-67
2023/09/15 03:36:10;;;;;;;;;10.33;9.33;;;;;;;;5084373;27;45352;-69
2023/09/15 03:38:36;;;;;;;;;13.00;12.00;;;;;;;;5096503;27;45385;-68
2023/09/15 03:41:01;;;;;;;;;12.67;10.00;;;;;;;;5103054;27;45354;-67
2023/09/15 03:43:26;;;;;;;;;9.33;8.67;;;;;;;;5102880;27;45992;-68
2023/09/15 03:45:52;;;;;;;;;10.33;10.33;;;;;;;;5087110;27;45924;-76
2023/09/15 03:48:17;;;;;;;;;11.67;11.67;;;;;;;;5096311;27;46677;-76
2023/09/15 03:50:43;;;;;;;;;10.67;10.33;;;;;;;;5101741;27;45556;-77
2023/09/15 03:53:09;;;;;;;;;12.33;7.33;;;;;;;;5100525;27;45484;-76
2023/09/15 03:55:35;;;;;;;;;9.00;7.33;;;;;;;;5098325;27;45360;-68
2023/09/15 03:58:01;;;;;;;;;9.00;8.00;;;;;;;;5081713;27;45453;-69
2023/09/15 04:00:26;;;;;;;;;10.33;8.67;;;;;;;;5098544;27;45713;-69
2023/09/15 04:02:52;;;;;;;;;14.00;12.67;;;;;;;;5099438;27;45823;-68
2023/09/15 04:05:17;;;;;;;;;10.67;9.67;;;;;;;;5095897;27;45363;-69
2023/09/15 04:07:43;;;;;;;;;7.00;6.33;;;;;;;;5099133;27;45364;-69
2023/09/15 04:10:08;;;;;;;;;10.00;9.67;;;;;;;;5103790;27;45662;-70
2023/09/15 04:12:34;;;;;;;;;13.33;8.33;;;;;;;;5095560;27;46222;-69
2023/09/15 04:14:59;;;;;;;;;10.00;8.67;;;;;;;;5103723;27;45352;-69
2023/09/15 04:17:25;;;;;;;;;11.33;10.67;;;;;;;;5093365;27;45445;-70
2023/09/15 04:19:50;;;;;;;;;9.00;9.00;;;;;;;;5100318;27;45382;-68
2023/09/15 04:22:15;;;;;;;;;12.00;10.00;;;;;;;;5093618;27;46700;-70
2023/09/15 04:24:40;;;;;;;;;6.00;4.67;;;;;;;;5100394;27;45467;-69
2023/09/15 04:27:06;;;;;;;;;12.67;11.00;;;;;;;;5095447;27;45329;-69
2023/09/15 04:29:31;;;;;;;;;12.00;12.00;;;;;;;;5094887;27;45259;-69
2023/09/15 04:31:56;;;;;;;;;7.67;7.33;;;;;;;;5090275;27;45493;-68
2023/09/15 04:34:21;;;;;;;;;12.33;9.67;;;;;;;;5106294;27;45587;-69
2023/09/15 04:36:47;;;;;;;;;11.67;10.00;;;;;;;;5100436;27;45534;-68
2023/09/15 04:39:13;;;;;;;;;11.67;9.00;;;;;;;;5099837;27;45953;-68
2023/09/15 04:41:39;;;;;;;;;12.00;10.33;;;;;;;;5103582;27;45711;-68
2023/09/15 04:44:04;;;;;;;;;14.33;12.00;;;;;;;;5098722;27;45566;-67
2023/09/15 04:46:30;;;;;;;;;6.67;6.33;;;;;;;;5098662;27;46018;-69
2023/09/15 04:48:55;;;;;;;;;11.67;10.33;;;;;;;;5098314;27;45419;-69
2023/09/15 04:51:20;;;;;;;;;11.00;10.33;;;;;;;;5099845;27;45432;-68
2023/09/15 04:53:46;;;;;;;;;12.33;11.00;;;;;;;;5100357;27;45429;-68
2023/09/15 04:56:11;;;;;;;;;9.33;6.00;;;;;;;;5099868;27;45627;-68
2023/09/15 04:58:36;;;;;;;;;10.67;9.67;;;;;;;;5103785;27;45396;-68
2023/09/15 05:01:03;;;;;;;;;10.33;9.33;;;;;;;;5104842;27;45348;-69
2023/09/15 05:03:29;;;;;;;;;10.67;10.00;;;;;;;;5093363;27;45916;-69
2023/09/15 05:05:55;;;;;;;;;11.00;11.00;;;;;;;;5111609;27;46425;-69
2023/09/15 05:08:20;;;;;;;;;13.00;10.67;;;;;;;;5103636;27;45921;-70
2023/09/15 05:10:46;;;;;;;;;12.00;11.00;;;;;;;;5095792;27;46746;-69
2023/09/15 05:13:11;;;;;;;;;11.67;9.33;;;;;;;;5085089;27;45427;-68
2023/09/15 05:15:37;;;;;;;;;10.67;10.67;;;;;;;;5095158;27;45609;-68
2023/09/15 05:18:02;;;;;;;;;12.00;10.00;;;;;;;;5091534;27;46902;-70
2023/09/15 05:20:28;;;;;;;;;16.33;11.00;;;;;;;;5097667;27;46586;-69
2023/09/15 05:22:53;;;;;;;;;11.33;10.00;;;;;;;;5095800;27;45752;-69
2023/09/15 05:25:18;;;;;;;;;8.67;6.00;;;;;;;;5097023;27;45439;-69
2023/09/15 05:27:43;;;;;;;;;14.67;11.33;;;;;;;;5076864;27;46413;-71
2023/09/15 05:30:09;;;;;;;;;12.67;10.33;;;;;;;;5100244;27;46326;-71
2023/09/15 05:32:34;;;;;;;;;11.67;11.67;;;;;;;;5097659;27;45832;-69
2023/09/15 05:34:59;;;;;;;;;9.33;9.33;;;;;;;;5086921;27;45728;-68
2023/09/15 05:37:25;;;;;;;;;8.67;8.67;;;;;;;;5108786;27;45980;-68
2023/09/15 05:39:50;;;;;;;;;11.33;8.67;;;;;;;;5101054;27;46143;-67
2023/09/15 05:42:15;;;;;;;;;15.67;11.33;;;;;;;;5094663;27;45391;-70
2023/09/15 05:44:40;;;;;;;;;14.00;11.67;;;;;;;;5094173;27;45326;-68
2023/09/15 05:47:06;;;;;;;;;6.00;6.00;;;;;;;;5080833;27;46434;-68
2023/09/15 05:49:31;;;;;;;;;14.00;10.67;;;;;;;;5104259;27;45841;-67
2023/09/15 05:51:56;;;;;;;;;13.67;11.33;;;;;;;;5101593;27;45704;-67
2023/09/15 05:54:22;;;;;;;;;13.33;13.33;;;;;;;;5083874;27;45979;-67
2023/09/15 05:56:47;;;;;;;;;12.00;11.00;;;;;;;;5101256;27;45690;-67
2023/09/15 05:59:12;;;;;;;;;11.00;10.00;;;;;;;;5113417;27;45991;-68
2023/09/15 06:01:39;;;;;;;;;10.67;9.33;;;;;;;;5094107;27;45400;-67
2023/09/15 06:04:05;;;;;;;;;14.33;12.67;;;;;;;;5106568;27;45793;-65
2023/09/15 06:06:31;;;;;;;;;14.67;11.00;;;;;;;;5095041;27;45407;-67
2023/09/15 06:08:56;;;;;;;;;12.00;9.33;;;;;;;;5094170;27;45650;-68
2023/09/15 06:11:21;;;;;;;;;11.67;11.67;;;;;;;;5094944;27;45474;-66
2023/09/15 06:13:47;;;;;;;;;14.00;12.33;;;;;;;;5095155;27;45462;-70
2023/09/15 06:16:12;;;;;;;;;11.33;10.33;;;;;;;;5104659;27;45785;-68
2023/09/15 06:18:37;;;;;;;;;7.00;7.00;;;;;;;;5102423;27;45853;-66
2023/09/15 06:21:02;;;;;;;;;9.67;9.67;;;;;;;;5103356;27;45741;-69
2023/09/15 06:23:30;;;;;;;;;8.67;6.67;;;;;;;;5097099;27;45826;-69
2023/09/15 06:25:55;;;;;;;;;9.00;7.67;;;;;;;;5105031;27;45875;-67
2023/09/15 06:28:20;;;;;;;;;11.67;10.33;;;;;;;;5099777;27;45437;-68
2023/09/15 06:30:46;;;;;;;;;11.50;11.50;;;;;;;;5102826;27;45751;-66
2023/09/15 06:33:11;;;;;;;;;14.50;8.50;;;;;;;;5109308;27;45486;-69
2023/09/15 06:35:37;;;;;;;;;7.25;6.50;;;;;;;;5088987;27;46566;-67
2023/09/15 06:38:02;;;;;;;;;11.50;9.00;;;;;;;;5088194;27;46485;-68
2023/09/15 06:40:28;;;;;;;;;14.25;8.00;;;;;;;;5089959;27;45573;-71
2023/09/15 06:42:53;;;;;;;;;10.00;8.00;;;;;;;;5076323;27;45459;-68
2023/09/15 06:45:18;;;;;;;;;13.50;11.25;;;;;;;;5083102;27;45662;-69
2023/09/15 06:47:43;;;;;;;;;9.25;9.25;;;;;;;;5076793;27;46345;-67
2023/09/15 06:50:09;;;;;;;;;11.00;10.25;;;;;;;;5078881;27;45627;-68
2023/09/15 06:52:34;;;;;;;;;10.25;6.00;;;;;;;;5060065;27;45962;-67
2023/09/15 06:54:59;;;;;;;;;11.75;9.75;;;;;;;;5082007;27;45691;-67
2023/09/15 06:57:24;;;;;;;;;11.50;10.25;;;;;;;;5086459;27;46946;-67
2023/09/15 06:59:51;;;;;;;;;12.75;11.75;;;;;;;;5074085;27;45647;-67
2023/09/15 07:02:16;;;;;;;;;9.00;9.00;;;;;;;;5084112;27;45859;-69
2023/09/15 07:04:43;;;;;;;;;14.25;10.25;;;;;;;;5075302;27;45475;-65
2023/09/15 07:07:09;;;;;;;;;13.25;10.50;;;;;;;;5079487;27;46277;-68
2023/09/15 07:09:34;;;;;;;;;8.75;7.25;;;;;;;;5086420;27;45455;-66
2023/09/15 07:11:59;;;;;;;;;12.25;10.75;;;;;;;;5064975;27;45760;-66
2023/09/15 07:14:25;;;;;;;;;13.50;12.50;;;;;;;;5074831;27;46656;-67
2023/09/15 07:16:51;;;;;;;;;12.75;10.75;;;;;;;;5083378;27;46090;-68
2023/09/15 07:19:16;;;;;;;;;12.75;11.75;;;;;;;;5072594;27;45765;-68
2023/09/15 07:21:43;;;;;;;;;12.50;10.25;;;;;;;;5057792;28;45690;-67
2023/09/15 07:24:09;;;;;;;;;14.25;10.25;;;;;;;;5061666;28;45716;-68
2023/09/15 07:26:34;;;;;;;;;19.50;12.75;;;;;;;;5086111;27;45593;-67
2023/09/15 07:29:00;;;;;;;;;14.75;10.50;;;;;;;;5076927;27;45373;-66
2023/09/15 07:31:25;;;;;;;;;14.00;14.00;;;;;;;;5078645;27;45276;-66
2023/09/15 07:33:51;;;;;;;;;16.33;14.67;;;;;;;;5074223;27;45627;-68
2023/09/15 07:36:16;;;;;;;;;15.75;15.75;;;;;;;;5092012;27;46506;-69
2023/09/15 07:38:41;;;;;;;;;13.67;12.00;;;;;;;;5093128;27;45453;-67
2023/09/15 07:41:07;;;;;;;;;18.67;16.00;;;;;;;;5078601;27;45464;-66
2023/09/15 07:43:32;;;;;;;;;17.00;13.67;;;;;;;;5092649;27;45908;-67
2023/09/15 07:45:57;;;;;;;;;16.67;12.33;;;;;;;;5092982;27;46718;-66
2023/09/15 07:48:22;;;;;;;;;14.33;12.67;;;;;;;;5092029;27;45819;-67
2023/09/15 07:50:48;;;;;;;;;17.33;14.33;;;;;;;;5107422;27;45841;-67
2023/09/15 07:53:13;;;;;;;;;19.00;16.00;;;;;;;;5094104;27;45738;-66
2023/09/15 07:55:39;;;;;;;;;14.00;10.33;;;;;;;;5091881;27;45905;-67
2023/09/15 07:58:04;;;;;;;;;18.33;15.33;;;;;;;;5095058;27;45629;-66
2023/09/15 08:00:29;;;;;;;;;13.00;12.67;;;;;;;;5092917;27;45662;-65
2023/09/15 08:02:54;;;;;;;;;14.67;14.67;;;;;;;;5095138;27;45494;-66
2023/09/15 08:05:20;;;;;;;;;21.00;14.00;;;;;;;;5081986;27;46445;-68
2023/09/15 08:07:46;;;;;;;;;19.33;18.33;;;;;;;;5094250;27;45397;-66
2023/09/15 08:10:12;;;;;;;;;16.00;15.00;;;;;;;;5100204;27;45833;-66
2023/09/15 08:12:38;;;;;;;;;16.67;15.00;;;;;;;;5101461;27;45331;-67
2023/09/15 08:15:06;;;;;;;;;22.67;16.33;;;;;;;;5107759;27;46275;-69
2023/09/15 08:17:31;;;;;;;;;18.00;16.00;;;;;;;;5096745;27;45403;-67
2023/09/15 08:19:57;;;;;;;;;18.33;15.67;;;;;;;;5098559;27;45283;-67
2023/09/15 08:22:23;;;;;;;;;13.00;12.33;;;;;;;;5106287;27;45449;-66
2023/09/15 08:24:49;;;;;;;;;17.67;15.00;;;;;;;;5080738;27;47225;-66
2023/09/15 08:27:15;;;;;;;;;15.33;14.67;;;;;;;;5103438;27;45727;-67
2023/09/15 08:29:40;;;;;;;;;15.67;15.00;;;;;;;;5093181;27;45904;-67
2023/09/15 08:32:05;;;;;;;;;16.00;12.67;;;;;;;;5107195;27;45836;-66
2023/09/15 08:34:31;;;;;;;;;14.00;12.67;;;;;;;;5095787;27;45830;-66
2023/09/15 08:36:56;;;;;;;;;17.67;14.00;;;;;;;;5106145;27;45687;-67
2023/09/15 08:39:21;;;;;;;;;18.33;16.67;;;;;;;;5096971;27;45428;-67
2023/09/15 08:42:16;;;;;;;;;19.33;15.67;;;;;;;;5096493;27;45920;-67
2023/09/15 08:44:42;;;;;;;;;20.67;17.00;;;;;;;;5073806;27;46307;-67
2023/09/15 08:47:08;;;;;;;;;15.67;14.00;;;;;;;;5096839;27;45671;-67
2023/09/15 08:49:34;;;;;;;;;17.67;14.67;;;;;;;;5104484;27;45596;-66
2023/09/15 08:52:02;;;;;;;;;20.67;17.67;;;;;;;;5097520;27;45449;-67
2023/09/15 08:54:29;;;;;;;;;17.67;14.33;;;;;;;;5095017;27;45833;-67
2023/09/15 08:56:54;;;;;;;;;20.00;15.67;;;;;;;;5096309;27;45742;-68
2023/09/15 08:59:20;;;;;;;;;15.67;14.33;;;;;;;;5104703;27;45332;-67
2023/09/15 09:01:46;;;;;;;;;16.33;15.33;;;;;;;;5095805;27;45665;-66
2023/09/15 09:04:11;;;;;;;;;17.00;14.33;;;;;;;;5092074;27;47225;-69
2023/09/15 09:06:37;;;;;;;;;11.00;10.33;;;;;;;;5095909;27;45679;-66
2023/09/15 09:09:04;;;;;;;;;13.33;12.00;;;;;;;;5103282;27;45782;-67
2023/09/15 09:11:29;;;;;;;;;15.00;15.00;;;;;;;;5079518;27;46321;-67
2023/09/15 09:13:54;;;;;;;;;9.00;9.00;;;;;;;;5096278;27;45474;-67
2023/09/15 09:16:20;;;;;;;;;13.25;11.00;;;;;;;;5098230;27;45465;-68
2023/09/15 09:18:56;;;;;;;;;10.50;10.50;;;;;;;;5098291;27;45728;-67
2023/09/15 09:21:28;;;;;;;;;9.75;8.50;;;;;;;;5102248;27;45420;-73
2023/09/15 09:23:54;;;;;;;;;11.25;10.00;;;;;;;;5096063;27;45735;-67
2023/09/15 09:26:20;;;;;;;;;10.75;10.75;;;;;;;;5095205;27;45314;-68
2023/09/15 09:28:45;;;;;;;;;12.00;10.00;;;;;;;;5106026;27;45794;-68
2023/09/15 09:31:11;;;;;;;;;11.25;8.75;;;;;;;;5095158;27;45422;-67
2023/09/15 09:33:36;;;;;;;;;10.25;10.25;;;;;;;;5094953;27;46154;-67
2023/09/15 09:36:13;;;;;;;;;9.25;9.00;;;;;;;;5095164;27;45576;-68
2023/09/15 09:38:42;;;;;;;;;11.25;9.75;;;;;;;;5096405;27;45883;-67
2023/09/15 09:41:11;;;;;;;;;10.75;8.00;;;;;;;;5106702;27;45466;-69
2023/09/15 09:43:38;;;;;;;;;10.75;10.75;;;;;;;;5087900;27;45756;-69
2023/09/15 09:46:04;;;;;;;;;10.25;10.25;;;;;;;;5103885;27;45630;-67
2023/09/15 09:48:32;;;;;;;;;10.00;8.75;;;;;;;;5098571;27;45960;-67
2023/09/15 09:50:57;;;;;;;;;13.00;10.75;;;;;;;;5096998;27;45553;-68
2023/09/15 09:53:29;;;;;;;;;10.50;9.25;;;;;;;;5098397;27;45793;-67
2023/09/15 09:55:56;;;;;;;;;11.25;8.75;;;;;;;;5096160;27;45528;-68
2023/09/15 09:58:21;;;;;;;;;9.00;8.50;;;;;;;;5083610;27;45375;-66
2023/09/15 10:00:50;;;;;;;;;9.75;7.75;;;;;;;;5094991;27;45578;-67
2023/09/15 10:03:16;;;;;;;;;9.50;9.50;;;;;;;;5092384;27;48368;-70
2023/09/15 10:05:41;;;;;;;;;7.75;6.75;;;;;;;;5096693;27;45357;-68
2023/09/15 10:08:08;;;;;;;;;4.50;4.50;;;;;;;;5096436;27;45369;-68
2023/09/15 10:10:38;;;;;;;;;9.00;9.00;;;;;;;;5089078;27;45841;-68
2023/09/15 10:13:03;;;;;;;;;10.75;10.75;;;;;;;;5101138;27;45699;-68
2023/09/15 10:15:29;;;;;;;;;9.25;8.25;;;;;;;;5081000;27;45856;-67
2023/09/15 10:17:54;;;;;;;;;13.00;11.50;;;;;;;;5100660;27;45744;-69
2023/09/15 10:20:21;;;;;;;;;12.50;12.50;;;;;;;;5094593;27;45875;-71
2023/09/15 10:22:47;;;;;;;;;23.00;22.00;;;;;;;;5099198;27;45618;-69
2023/09/15 10:25:19;;;;;;;;;11.00;9.75;;;;;;;;5098809;27;45580;-69
2023/09/15 10:27:46;;;;;;;;;12.25;12.00;;;;;;;;5095676;27;45766;-67
2023/09/15 10:30:11;;;;;;;;;9.75;8.00;;;;;;;;5087594;27;46445;-68
2023/09/15 10:32:40;;;;;;;;;8.00;8.00;;;;;;;;5092876;27;45527;-69
2023/09/15 10:35:06;;;;;;;;;11.00;9.00;;;;;;;;5108052;27;45744;-68
2023/09/15 10:37:33;;;;;;;;;7.25;7.25;;;;;;;;5104964;27;45538;-70
2023/09/15 10:39:59;;;;;;;;;11.00;7.50;;;;;;;;5076860;27;45431;-68
2023/09/15 10:42:24;;;;;;;;;9.75;9.00;;;;;;;;5096937;27;45730;-70
2023/09/15 10:44:50;;;;;;;;;8.00;8.00;;;;;;;;5097579;27;45777;-68
2023/09/15 10:47:16;;;;;;;;;7.75;6.75;;;;;;;;5096883;27;45609;-67
2023/09/15 10:49:51;;;;;;;;;8.75;8.75;;;;;;;;5081564;27;45447;-66
2023/09/15 10:52:17;;;;;;;;;8.75;8.75;;;;;;;;5076281;27;46140;-68
2023/09/15 10:54:42;;;;;;;;;8.00;8.00;;;;;;;;5091179;27;45397;-68
2023/09/15 10:57:08;;;;;;;;;9.75;9.75;;;;;;;;5091328;27;45407;-67
2023/09/15 10:59:33;;;;;;;;;4.00;2.50;;;;;;;;5101895;27;45894;-69
2023/09/15 11:01:58;;;;;;;;;11.25;8.25;;;;;;;;5091427;27;45820;-69
2023/09/15 11:04:25;;;;;;;;;12.00;8.75;;;;;;;;5085790;27;46027;-67
2023/09/15 11:06:51;;;;;;;;;6.25;5.75;;;;;;;;5099220;27;45524;-67
2023/09/15 11:09:17;;;;;;;;;7.00;7.00;;;;;;;;5104661;27;46480;-70
2023/09/15 11:11:44;;;;;;;;;12.25;9.75;;;;;;;;5093663;27;46168;-69
2023/09/15 11:14:11;;;;;;;;;9.25;7.25;;;;;;;;5099273;27;46187;-69
2023/09/15 11:16:37;;;;;;;;;9.50;6.75;;;;;;;;5099688;27;45562;-69
2023/09/15 11:19:02;;;;;;;;;7.75;7.00;;;;;;;;5099018;27;45468;-70
2023/09/15 11:21:28;;;;;;;;;7.00;7.00;;;;;;;;5094401;27;47305;-69
2023/09/15 11:23:56;;;;;;;;;9.00;7.50;;;;;;;;5097481;27;45751;-66
2023/09/15 11:26:22;;;;;;;;;8.75;6.25;;;;;;;;5096813;27;45738;-68
2023/09/15 11:28:48;;;;;;;;;6.00;5.00;;;;;;;;5099275;22;46453;-78
2023/09/15 11:31:13;;;;;;;;;8.00;8.00;;;;;;;;5075119;27;46066;-79
2023/09/15 11:33:42;;;;;;;;;4.75;4.75;;;;;;;;5070200;28;45945;-78
2023/09/15 11:36:07;;;;;;;;;9.25;7.75;;;;;;;;5072883;28;46130;-80
2023/09/15 11:38:33;;;;;;;;;9.75;7.00;;;;;;;;5075570;28;46500;-78
2023/09/15 11:40:58;;;;;;;;;6.50;6.50;;;;;;;;5076152;27;45973;-78
2023/09/15 11:43:23;;;;;;;;;8.75;7.50;;;;;;;;5074804;28;45397;-80
2023/09/15 11:45:53;;;;;;;;;9.50;6.50;;;;;;;;5076120;27;45259;-77
2023/09/15 11:48:20;;;;;;;;;5.25;4.25;;;;;;;;5071010;27;45737;-78
2023/09/15 11:50:46;;;;;;;;;6.00;6.00;;;;;;;;5072424;28;45429;-78
2023/09/15 11:53:11;;;;;;;;;5.25;4.00;;;;;;;;5063687;27;45727;-78
2023/09/15 11:55:37;;;;;;;;;8.75;7.25;;;;;;;;5063420;27;46022;-78
2023/09/15 11:58:02;;;;;;;;;7.00;4.00;;;;;;;;5064536;27;45922;-78
2023/09/15 12:00:31;;;;;;;;;3.25;3.25;;;;;;;;5066109;27;45773;-81
2023/09/15 12:02:57;;;;;;;;;8.00;6.75;;;;;;;;5071179;28;45537;-79
2023/09/15 12:05:26;;;;;;;;;7.00;5.00;;;;;;;;5074874;28;46000;-79
2023/09/15 12:07:51;;;;;;;;;5.75;5.00;;;;;;;;5068207;27;46105;-76
2023/09/15 12:10:18;;;;;;;;;4.25;4.00;;;;;;;;5077600;27;45408;-78
2023/09/15 12:12:45;;;;;;;;;4.25;4.25;;;;;;;;5075137;27;45430;-80
2023/09/15 12:15:10;;;;;;;;;5.75;4.00;;;;;;;;5064483;28;45791;-79
2023/09/15 12:17:40;;;;;;;;;6.00;4.00;;;;;;;;5068165;27;45617;-80
2023/09/15 12:20:07;;;;;;;;;4.00;3.00;;;;;;;;5061308;27;45694;-78
2023/09/15 12:22:33;;;;;;;;;3.25;3.25;;;;;;;;5058163;28;45755;-81
2023/09/15 12:24:59;;;;;;;;;5.00;5.00;;;;;;;;5066415;28;45367;-80
2023/09/15 12:27:28;;;;;;;;;5.00;5.00;;;;;;;;5069432;27;45493;-81
2023/09/15 12:29:53;;;;;;;;;6.25;5.25;;;;;;;;5075339;28;45384;-80
2023/09/15 12:32:30;;;;;;;;;5.25;5.00;;;;;;;;5060911;28;45389;-79
2023/09/15 12:34:55;;;;;;;;;4.25;4.25;;;;;;;;5072001;28;45496;-78
2023/09/15 12:37:21;;;;;;;;;4.50;2.75;;;;;;;;5072700;27;46313;-80
2023/09/15 12:39:46;;;;;;;;;5.25;4.00;;;;;;;;5069385;27;46110;-81
2023/09/15 12:42:13;;;;;;;;;5.50;3.50;;;;;;;;5061034;28;45421;-79
2023/09/15 12:44:38;;;;;;;;;4.00;4.00;;;;;;;;5074689;27;45472;-80
2023/09/15 12:47:04;;;;;;;;;2.00;2.00;;;;;;;;5074902;28;45538;-81
2023/09/15 12:49:29;;;;;;;;;3.00;3.00;;;;;;;;5073355;28;46868;-78
2023/09/15 12:51:54;;;;;;;;;4.25;4.25;;;;;;;;5066909;28;45505;-80
2023/09/15 12:54:21;;;;;;;;;4.50;4.00;;;;;;;;5072412;28;45013;-79
2023/09/15 12:56:52;;;;;;;;;3.50;3.50;;;;;;;;5076156;27;45629;-81
2023/09/15 12:59:18;;;;;;;;;3.25;3.25;;;;;;;;5076884;28;46355;-80
2023/09/15 13:01:44;;;;;;;;;6.00;4.00;;;;;;;;5072079;28;45695;-79
2023/09/15 13:04:09;;;;;;;;;4.50;4.50;;;;;;;;5070491;28;45401;-78
2023/09/15 13:06:34;;;;;;;;;7.00;4.50;;;;;;;;5074556;28;45500;-80
2023/09/15 13:09:04;;;;;;;;;5.25;4.00;;;;;;;;5077472;28;45509;-79
2023/09/15 13:11:30;;;;;;;;;5.00;3.75;;;;;;;;5071344;28;45467;-80
2023/09/15 13:13:55;;;;;;;;;5.00;4.00;;;;;;;;5078244;28;45319;-79
2023/09/15 13:16:20;;;;;;;;;4.00;4.00;;;;;;;;5071639;28;45729;-80
2023/09/15 13:18:45;;;;;;;;;4.25;4.25;;;;;;;;5071476;28;47028;-80
2023/09/15 13:21:12;;;;;;;;;5.00;4.50;;;;;;;;5077122;28;46403;-79
2023/09/15 13:23:38;;;;;;;;;5.50;4.00;;;;;;;;5074823;27;45765;-80
2023/09/15 13:26:05;;;;;;;;;3.00;3.00;;;;;;;;5072436;28;45492;-80
2023/09/15 13:28:30;;;;;;;;;4.25;4.25;;;;;;;;5072093;28;45765;-79
2023/09/15 13:30:55;;;;;;;;;4.50;4.50;;;;;;;;5072178;28;45446;-80
2023/09/15 13:33:20;;;;;;;;;5.50;4.50;;;;;;;;5076132;28;45473;-80
2023/09/15 13:35:46;;;;;;;;;3.25;3.25;;;;;;;;5076627;28;46471;-81
2023/09/15 13:38:11;;;;;;;;;4.25;4.25;;;;;;;;5078315;28;45331;-79
2023/09/15 13:40:36;;;;;;;;;4.75;4.75;;;;;;;;5077380;27;45291;-81
2023/09/15 13:43:02;;;;;;;;;3.00;3.00;;;;;;;;5078416;28;45348;-78
2023/09/15 13:45:27;;;;;;;;;4.50;4.00;;;;;;;;5078248;27;45424;-78
2023/09/15 13:47:52;;;;;;;;;5.50;4.25;;;;;;;;5068572;27;45472;-79
2023/09/15 13:50:17;;;;;;;;;3.50;3.50;;;;;;;;5079449;28;45396;-79
2023/09/15 13:52:43;;;;;;;;;4.50;4.25;;;;;;;;5081197;28;45404;-79
2023/09/15 13:55:08;;;;;;;;;2.00;2.00;;;;;;;;5080581;28;45784;-78
2023/09/15 13:57:35;;;;;;;;;3.75;3.75;;;;;;;;5080232;28;45635;-81
2023/09/15 14:00:01;;;;;;;;;3.00;3.00;;;;;;;;5077960;27;45573;-79
2023/09/15 14:02:27;;;;;;;;;4.50;4.50;;;;;;;;5077650;28;45569;-80
2023/09/15 14:04:56;;;;;;;;;6.50;4.00;;;;;;;;5073354;28;45291;-77
2023/09/15 14:07:21;;;;;;;;;7.00;5.00;;;;;;;;5067477;27;47759;-79
2023/09/15 14:09:46;;;;;;;;;4.50;4.00;;;;;;;;5063947;28;45475;-80
2023/09/15 14:12:12;;;;;;;;;5.00;5.00;;;;;;;;5063095;28;45797;-79
2023/09/15 14:14:37;;;;;;;;;4.00;4.00;;;;;;;;5077525;27;45586;-78
2023/09/15 14:17:04;;;;;;;;;4.00;4.00;;;;;;;;5077684;28;45338;-79
2023/09/15 14:19:33;;;;;;;;;2.25;2.25;;;;;;;;5076393;27;45827;-80
2023/09/15 14:21:58;;;;;;;;;3.75;3.75;;;;;;;;5085731;27;45943;-78
2023/09/15 14:24:23;;;;;;;;;4.25;4.25;;;;;;;;5060920;28;45560;-79